Time;durP1;ratioP1;P1;durP2;ratioP2;P2;SDS_P1;SDS_P2;PMS_P1;PMS_P2;Temp;Humidity;BMP_temperature;BMP_pressure;BME280_temperature;BME280_humidity;BME280_pressure;Samples;Min_cycle;Max_cycle;Signal;HPM_P1;HPM_P2
2020/12/04 00:00:23;;;;;;;6.50;3.20;;;5.20;98.20;;;;;;5064460;28;20450;-75
2020/12/04 00:02:49;;;;;;;1.60;1.40;;;5.20;98.20;;;;;;5070468;28;20458;-75
2020/12/04 00:05:16;;;;;;;1.60;1.40;;;5.20;98.20;;;;;;5068044;28;20974;-73
2020/12/04 00:07:43;;;;;;;1.60;1.30;;;5.20;98.20;;;;;;5065071;28;20599;-75
2020/12/04 00:10:10;;;;;;;1.60;1.30;;;5.20;98.20;;;;;;5062515;28;20843;-76
2020/12/04 00:12:37;;;;;;;1.57;1.30;;;5.20;98.20;;;;;;5069109;28;20517;-74
2020/12/04 00:15:04;;;;;;;1.60;1.30;;;5.20;98.20;;;;;;5063932;28;21462;-76
2020/12/04 00:17:30;;;;;;;1.60;1.40;;;5.20;98.20;;;;;;5067768;28;20683;-76
2020/12/04 00:19:57;;;;;;;1.60;1.30;;;5.20;98.20;;;;;;5064963;28;20488;-76
2020/12/04 00:22:23;;;;;;;1.60;1.40;;;5.20;98.20;;;;;;5075649;28;20543;-75
2020/12/04 00:24:50;;;;;;;1.60;1.40;;;5.20;98.20;;;;;;5071635;28;20543;-76
2020/12/04 00:27:17;;;;;;;1.60;1.30;;;5.20;98.20;;;;;;5072605;28;20496;-76
2020/12/04 00:29:43;;;;;;;1.60;1.40;;;5.20;98.20;;;;;;5076589;28;20522;-76
2020/12/04 00:32:10;;;;;;;1.60;1.30;;;5.20;98.20;;;;;;5080693;28;20458;-76
2020/12/04 00:34:37;;;;;;;1.60;1.30;;;5.20;98.20;;;;;;5077601;28;20535;-76
2020/12/04 00:37:03;;;;;;;1.60;1.30;;;5.20;98.20;;;;;;5073503;28;20517;-76
2020/12/04 00:39:30;;;;;;;1.60;1.30;;;5.20;98.20;;;;;;5078833;28;20492;-76
2020/12/04 00:41:59;;;;;;;1.60;1.40;;;5.20;98.20;;;;;;5079832;28;20461;-77
2020/12/04 00:44:27;;;;;;;1.60;1.37;;;5.20;98.20;;;;;;5077845;28;20482;-76
2020/12/04 00:46:53;;;;;;;1.57;1.30;;;5.20;98.20;;;;;;5075536;28;20491;-76
2020/12/04 00:49:20;;;;;;;1.60;1.43;;;5.20;98.20;;;;;;5078387;28;20941;-76
2020/12/04 00:51:46;;;;;;;1.60;1.40;;;5.20;98.20;;;;;;5081542;28;20458;-76
2020/12/04 00:54:13;;;;;;;1.60;1.33;;;5.20;98.20;;;;;;5073699;28;20490;-75
2020/12/04 00:56:39;;;;;;;1.60;1.37;;;5.20;98.20;;;;;;5070606;28;20543;-76
2020/12/04 00:59:06;;;;;;;1.60;1.50;;;5.20;98.20;;;;;;5079641;28;21084;-76
2020/12/04 01:01:33;;;;;;;1.60;1.37;;;5.20;98.20;;;;;;5074826;28;20457;-76
2020/12/04 01:04:00;;;;;;;1.70;1.60;;;5.20;98.20;;;;;;5078639;28;20481;-76
2020/12/04 01:06:26;;;;;;;1.60;1.33;;;5.20;98.20;;;;;;5081813;28;20552;-76
2020/12/04 01:08:53;;;;;;;1.60;1.30;;;5.20;98.20;;;;;;5080241;28;20466;-77
2020/12/04 01:11:20;;;;;;;1.60;1.30;;;5.20;98.20;;;;;;5074678;28;20474;-76
2020/12/04 01:13:47;;;;;;;1.60;1.43;;;5.20;98.20;;;;;;5072807;28;20482;-76
2020/12/04 01:16:14;;;;;;;1.60;1.40;;;5.20;98.20;;;;;;5080482;28;20922;-76
2020/12/04 01:18:41;;;;;;;1.60;1.40;;;5.30;98.20;;;;;;5072753;28;20462;-76
2020/12/04 01:21:11;;;;;;;1.60;1.40;;;5.30;98.20;;;;;;5071704;28;20454;-76
2020/12/04 01:23:37;;;;;;;1.60;1.30;;;5.30;98.20;;;;;;5079985;28;20480;-75
2020/12/04 01:26:04;;;;;;;1.60;1.40;;;5.30;98.20;;;;;;5070512;28;20535;-75
2020/12/04 01:28:31;;;;;;;1.60;1.30;;;5.30;98.20;;;;;;5065807;28;20511;-76
2020/12/04 01:30:57;;;;;;;1.60;1.43;;;5.30;98.20;;;;;;5072306;28;20486;-74
2020/12/04 01:33:24;;;;;;;1.60;1.30;;;5.30;98.20;;;;;;5081033;28;20523;-77
2020/12/04 01:35:51;;;;;;;1.60;1.30;;;5.30;98.20;;;;;;5077794;28;20891;-76
2020/12/04 01:38:17;;;;;;;1.60;1.40;;;5.30;98.20;;;;;;5075521;28;20462;-76
2020/12/04 01:40:44;;;;;;;1.60;1.40;;;5.30;98.20;;;;;;5079415;28;20484;-76
2020/12/04 01:43:10;;;;;;;2.80;2.60;;;5.30;98.20;;;;;;5079732;28;20525;-76
2020/12/04 01:45:37;;;;;;;1.60;1.30;;;5.30;98.20;;;;;;5071232;28;20910;-76
2020/12/04 01:48:04;;;;;;;1.60;1.30;;;5.30;98.20;;;;;;5070850;28;20516;-77
2020/12/04 01:50:31;;;;;;;1.70;1.60;;;5.20;98.20;;;;;;5070358;28;20466;-76
2020/12/04 01:52:59;;;;;;;1.60;1.30;;;5.20;98.20;;;;;;5070749;28;20512;-76
2020/12/04 01:55:26;;;;;;;1.60;1.30;;;5.20;98.20;;;;;;5076768;28;20490;-76
2020/12/04 01:57:53;;;;;;;1.60;1.30;;;5.20;98.20;;;;;;5076796;28;20462;-76
2020/12/04 02:00:20;;;;;;;1.60;1.40;;;5.20;98.20;;;;;;5078338;28;20902;-75
2020/12/04 02:02:47;;;;;;;1.57;1.30;;;5.20;98.20;;;;;;5068048;28;20462;-76
2020/12/04 02:05:15;;;;;;;1.60;1.50;;;5.20;98.20;;;;;;5072043;28;20508;-76
2020/12/04 02:07:50;;;;;;;1.60;1.30;;;5.20;98.20;;;;;;5069562;28;20501;-76
2020/12/04 02:10:21;;;;;;;1.63;1.50;;;5.20;98.20;;;;;;5065529;28;20455;-76
2020/12/04 02:12:50;;;;;;;1.60;1.40;;;5.10;98.20;;;;;;5073004;28;20466;-75
2020/12/04 02:15:17;;;;;;;1.60;1.30;;;5.10;98.20;;;;;;5077417;28;20486;-75
2020/12/04 02:17:44;;;;;;;1.60;1.30;;;5.10;98.20;;;;;;5069916;28;20459;-75
2020/12/04 02:20:11;;;;;;;1.60;1.30;;;5.10;98.20;;;;;;5075237;28;20461;-76
2020/12/04 02:22:39;;;;;;;1.60;1.50;;;5.00;98.20;;;;;;5079539;28;20523;-75
2020/12/04 02:25:07;;;;;;;1.60;1.30;;;5.00;98.20;;;;;;5072773;28;20479;-77
2020/12/04 02:27:33;;;;;;;1.60;1.30;;;5.00;98.20;;;;;;5074963;28;20521;-76
2020/12/04 02:30:00;;;;;;;1.60;1.30;;;5.00;98.20;;;;;;5075419;28;20458;-77
2020/12/04 02:32:26;;;;;;;1.60;1.50;;;5.00;98.20;;;;;;5078893;28;20467;-77
2020/12/04 02:34:53;;;;;;;1.77;1.60;;;5.00;98.20;;;;;;5080314;28;20478;-76
2020/12/04 02:37:19;;;;;;;1.60;1.30;;;5.00;98.20;;;;;;5074773;28;20478;-76
2020/12/04 02:39:47;;;;;;;1.60;1.30;;;4.90;98.20;;;;;;5073179;28;20450;-76
2020/12/04 02:42:13;;;;;;;1.60;1.30;;;4.90;98.20;;;;;;5077580;28;20489;-76
2020/12/04 02:44:40;;;;;;;1.60;1.40;;;4.90;98.20;;;;;;5075606;28;21016;-77
2020/12/04 02:47:06;;;;;;;1.60;1.30;;;4.90;98.20;;;;;;5074370;28;20486;-76
2020/12/04 02:49:33;;;;;;;1.60;1.30;;;4.90;98.20;;;;;;5073991;28;20493;-76
2020/12/04 02:51:59;;;;;;;1.60;1.33;;;4.90;98.20;;;;;;5074074;28;20713;-76
2020/12/04 02:54:26;;;;;;;1.60;1.50;;;4.90;98.20;;;;;;5071478;28;20994;-77
2020/12/04 02:56:54;;;;;;;1.60;1.40;;;4.90;98.20;;;;;;5070024;28;20477;-76
2020/12/04 02:59:20;;;;;;;1.60;1.43;;;4.80;98.20;;;;;;5077201;28;20484;-77
2020/12/04 03:01:47;;;;;;;1.60;1.40;;;4.80;98.20;;;;;;5077864;28;20462;-77
2020/12/04 03:04:13;;;;;;;1.60;1.30;;;4.80;98.20;;;;;;5078482;28;20517;-76
2020/12/04 03:06:40;;;;;;;1.60;1.30;;;4.80;98.20;;;;;;5065730;28;20466;-76
2020/12/04 03:09:06;;;;;;;1.60;1.40;;;4.80;98.20;;;;;;5077103;28;20827;-76
2020/12/04 03:11:33;;;;;;;1.60;1.30;;;4.80;98.20;;;;;;5078929;28;20989;-76
2020/12/04 03:14:00;;;;;;;1.60;1.40;;;4.80;98.20;;;;;;5072789;28;20512;-76
2020/12/04 03:16:26;;;;;;;1.60;1.30;;;4.80;98.20;;;;;;5074998;28;20485;-78
2020/12/04 03:18:53;;;;;;;1.60;1.30;;;4.80;98.20;;;;;;5074645;28;20466;-77
2020/12/04 03:21:19;;;;;;;1.60;1.30;;;4.80;98.20;;;;;;5074268;28;20515;-76
2020/12/04 03:23:46;;;;;;;1.60;1.37;;;4.80;98.20;;;;;;5075709;28;20880;-76
2020/12/04 03:26:12;;;;;;;1.60;1.40;;;4.80;98.20;;;;;;5067872;28;20480;-76
2020/12/04 03:28:38;;;;;;;2.03;1.83;;;4.80;98.20;;;;;;5076658;28;20473;-78
2020/12/04 03:31:06;;;;;;;1.60;1.50;;;4.80;98.20;;;;;;5077259;28;20863;-78
2020/12/04 03:33:32;;;;;;;1.60;1.30;;;4.80;98.20;;;;;;5077418;28;20482;-76
2020/12/04 03:35:59;;;;;;;1.60;1.50;;;4.80;98.20;;;;;;5074814;28;20482;-75
2020/12/04 03:38:25;;;;;;;1.60;1.40;;;4.80;98.20;;;;;;5076035;28;20461;-77
2020/12/04 03:40:52;;;;;;;5.00;4.60;;;4.80;98.20;;;;;;5076198;28;20454;-77
2020/12/04 03:43:18;;;;;;;1.60;1.40;;;4.80;98.20;;;;;;5076934;28;20465;-76
2020/12/04 03:45:45;;;;;;;1.80;1.40;;;4.80;98.20;;;;;;5072873;28;20454;-77
2020/12/04 03:48:12;;;;;;;1.60;1.40;;;4.80;98.20;;;;;;5075116;28;20462;-76
2020/12/04 03:50:38;;;;;;;1.70;1.50;;;4.90;98.20;;;;;;5077416;28;20945;-76
2020/12/04 03:53:06;;;;;;;1.60;1.50;;;4.90;98.20;;;;;;5077025;28;20513;-76
2020/12/04 03:55:33;;;;;;;1.60;1.30;;;4.90;98.20;;;;;;5065270;28;20486;-76
2020/12/04 03:57:59;;;;;;;1.70;1.60;;;4.90;98.20;;;;;;5074284;28;20457;-77
2020/12/04 04:00:26;;;;;;;1.60;1.30;;;5.00;98.20;;;;;;5078479;28;20458;-77
2020/12/04 04:02:52;;;;;;;1.60;1.40;;;5.00;98.20;;;;;;5071466;28;20538;-76
2020/12/04 04:05:20;;;;;;;1.60;1.30;;;5.00;98.20;;;;;;5075289;28;21024;-77
2020/12/04 04:07:46;;;;;;;1.60;1.30;;;5.10;98.20;;;;;;5071421;28;20836;-76
2020/12/04 04:10:12;;;;;;;1.60;1.40;;;5.10;98.20;;;;;;5070840;28;20552;-78
2020/12/04 04:12:39;;;;;;;1.60;1.40;;;5.10;98.20;;;;;;5073291;28;20453;-76
2020/12/04 04:15:05;;;;;;;1.60;1.40;;;5.20;98.20;;;;;;5077194;28;20515;-77
2020/12/04 04:17:32;;;;;;;1.60;1.30;;;5.20;98.20;;;;;;5068965;28;21037;-76
2020/12/04 04:19:58;;;;;;;1.60;1.50;;;5.20;98.20;;;;;;5071295;28;20466;-77
2020/12/04 04:22:26;;;;;;;1.60;1.40;;;5.20;98.20;;;;;;5075054;28;20466;-76
2020/12/04 04:24:52;;;;;;;1.70;1.60;;;5.20;98.20;;;;;;5072599;28;20517;-76
2020/12/04 04:27:18;;;;;;;1.60;1.30;;;5.30;98.20;;;;;;5074919;28;20453;-77
2020/12/04 04:29:45;;;;;;;1.60;1.50;;;5.30;98.20;;;;;;5076980;28;20462;-76
2020/12/04 04:32:11;;;;;;;1.60;1.30;;;5.30;98.20;;;;;;5074989;28;20492;-77
2020/12/04 04:34:38;;;;;;;2.23;2.03;;;5.30;98.20;;;;;;5075821;28;20508;-78
2020/12/04 04:37:04;;;;;;;1.60;1.30;;;5.40;98.20;;;;;;5075582;28;20527;-77
2020/12/04 04:39:32;;;;;;;1.60;1.50;;;5.40;98.20;;;;;;5078994;28;20469;-77
2020/12/04 04:41:58;;;;;;;1.60;1.40;;;5.40;98.20;;;;;;5072490;28;20517;-77
2020/12/04 04:44:25;;;;;;;1.60;1.40;;;5.40;98.20;;;;;;5074416;28;20481;-77
2020/12/04 04:47:03;;;;;;;1.60;1.40;;;5.40;98.20;;;;;;5075800;28;20458;-76
2020/12/04 04:49:35;;;;;;;1.57;1.30;;;5.50;98.20;;;;;;5075987;28;20466;-76
2020/12/04 04:52:05;;;;;;;1.60;1.30;;;5.50;98.20;;;;;;5071528;28;20457;-76
2020/12/04 04:54:36;;;;;;;1.60;1.40;;;5.50;98.20;;;;;;5067786;28;20498;-76
2020/12/04 04:57:03;;;;;;;1.60;1.40;;;5.50;98.20;;;;;;5076075;28;20482;-76
2020/12/04 04:59:30;;;;;;;1.60;1.30;;;5.60;98.20;;;;;;5074584;28;20457;-76
2020/12/04 05:01:57;;;;;;;1.60;1.30;;;5.60;98.20;;;;;;5072113;28;20454;-76
2020/12/04 05:04:23;;;;;;;1.60;1.40;;;5.60;98.20;;;;;;5070822;28;20500;-76
2020/12/04 05:06:49;;;;;;;1.60;1.30;;;5.60;98.20;;;;;;5071984;28;20977;-76
2020/12/04 05:09:21;;;;;;;1.60;1.30;;;5.60;98.20;;;;;;5069641;28;20515;-76
2020/12/04 05:11:57;;;;;;;1.60;1.30;;;5.60;98.20;;;;;;5063721;28;20495;-76
2020/12/04 05:14:25;;;;;;;1.60;1.37;;;5.60;98.20;;;;;;5081038;28;20473;-75
2020/12/04 05:16:53;;;;;;;1.60;1.40;;;5.60;98.20;;;;;;5075245;28;20475;-78
2020/12/04 05:19:50;;;;;;;1.60;1.40;;;5.60;98.20;;;;;;5069056;28;20455;-76
2020/12/04 05:22:18;;;;;;;1.60;1.40;;;5.60;98.20;;;;;;5037628;28;20487;-77
2020/12/04 05:24:45;;;;;;;1.90;1.70;;;5.60;98.20;;;;;;5062799;28;20579;-77
2020/12/04 05:27:26;;;;;;;1.60;1.33;;;5.60;98.20;;;;;;5073261;28;20458;-76
2020/12/04 05:29:54;;;;;;;1.60;1.50;;;5.70;98.20;;;;;;5079720;28;20492;-76
2020/12/04 05:32:21;;;;;;;1.60;1.30;;;5.70;98.20;;;;;;5082525;28;20457;-77
2020/12/04 05:34:47;;;;;;;1.60;1.30;;;5.70;98.20;;;;;;5071468;28;20546;-76
2020/12/04 05:37:18;;;;;;;1.57;1.30;;;5.70;98.20;;;;;;5080284;28;20542;-76
2020/12/04 05:39:47;;;;;;;1.60;1.50;;;5.70;98.20;;;;;;5079812;28;20511;-77
2020/12/04 05:42:30;;;;;;;1.60;1.30;;;5.80;98.20;;;;;;5081386;28;20465;-76
2020/12/04 05:44:57;;;;;;;1.60;1.40;;;5.80;98.20;;;;;;5077673;28;20655;-76
2020/12/04 05:47:35;;;;;;;1.60;1.30;;;5.80;98.20;;;;;;5075689;28;20488;-76
2020/12/04 05:50:03;;;;;;;1.60;1.30;;;5.80;98.20;;;;;;5078184;28;20577;-76
2020/12/04 05:52:29;;;;;;;1.60;1.40;;;5.80;98.20;;;;;;5075286;28;20467;-76
2020/12/04 05:54:58;;;;;;;1.60;1.40;;;5.80;98.20;;;;;;5074898;28;20900;-75
2020/12/04 05:57:27;;;;;;;1.60;1.30;;;5.90;98.20;;;;;;5073734;28;20516;-75
2020/12/04 05:59:54;;;;;;;2.00;1.90;;;5.90;98.20;;;;;;5068710;28;20485;-75
2020/12/04 06:02:21;;;;;;;1.60;1.40;;;5.90;98.20;;;;;;5074321;28;20446;-75
2020/12/04 06:04:48;;;;;;;1.60;1.40;;;5.90;98.20;;;;;;5076532;28;20490;-75
2020/12/04 06:07:24;;;;;;;1.60;1.30;;;5.90;98.20;;;;;;5075515;28;20977;-76
2020/12/04 06:09:55;;;;;;;1.57;1.30;;;5.90;98.20;;;;;;5063598;28;20461;-76
2020/12/04 06:12:21;;;;;;;1.60;1.30;;;5.90;98.20;;;;;;5066259;28;20458;-76
2020/12/04 06:14:48;;;;;;;1.60;1.43;;;5.90;98.20;;;;;;5070141;28;20473;-75
2020/12/04 06:17:15;;;;;;;1.60;1.30;;;6.00;98.20;;;;;;5072909;28;21626;-76
2020/12/04 06:19:43;;;;;;;1.60;1.30;;;6.00;98.20;;;;;;5066071;28;20471;-76
2020/12/04 06:22:11;;;;;;;1.73;1.63;;;6.00;98.20;;;;;;5075768;28;20454;-76
2020/12/04 06:25:03;;;;;;;1.97;1.87;;;6.00;98.20;;;;;;5069886;28;20876;-77
2020/12/04 06:27:42;;;;;;;1.60;1.37;;;6.00;98.20;;;;;;5070295;28;20567;-77
2020/12/04 06:30:10;;;;;;;1.60;1.40;;;6.00;98.20;;;;;;5072498;28;20549;-76
2020/12/04 06:32:41;;;;;;;1.60;1.30;;;6.00;98.20;;;;;;5070377;28;20497;-77
2020/12/04 06:35:09;;;;;;;1.60;1.30;;;6.00;98.20;;;;;;5072534;28;20505;-76
2020/12/04 06:37:40;;;;;;;1.60;1.30;;;6.10;98.20;;;;;;5072591;28;20485;-76
2020/12/04 06:40:27;;;;;;;1.60;1.40;;;6.10;98.20;;;;;;5078884;28;20491;-77
2020/12/04 06:42:55;;;;;;;1.60;1.30;;;6.10;98.20;;;;;;5078974;28;20516;-76
2020/12/04 06:45:23;;;;;;;1.60;1.30;;;6.10;98.20;;;;;;5071279;28;20590;-76
2020/12/04 06:48:12;;;;;;;1.60;1.40;;;6.10;98.20;;;;;;5070900;28;20470;-76
2020/12/04 06:50:42;;;;;;;1.57;1.20;;;6.20;98.20;;;;;;5069582;28;20515;-77
2020/12/04 06:53:09;;;;;;;1.60;1.30;;;6.20;98.20;;;;;;5072326;28;20524;-76
2020/12/04 06:55:37;;;;;;;1.60;1.30;;;6.20;98.20;;;;;;5067408;28;21075;-76
2020/12/04 06:58:03;;;;;;;1.60;1.20;;;6.20;98.20;;;;;;5071427;28;20490;-76
2020/12/04 07:00:30;;;;;;;1.60;1.50;;;6.20;98.20;;;;;;5067959;28;20528;-77
2020/12/04 07:02:59;;;;;;;1.60;1.40;;;6.30;98.20;;;;;;5067771;28;20525;-77
2020/12/04 07:05:28;;;;;;;1.60;1.40;;;6.30;98.20;;;;;;5068308;28;20474;-76
2020/12/04 07:08:05;;;;;;;1.60;1.27;;;6.30;98.20;;;;;;5066179;28;20545;-76
2020/12/04 07:10:31;;;;;;;1.60;1.50;;;6.30;98.20;;;;;;5067614;28;20763;-76
2020/12/04 07:12:59;;;;;;;1.60;1.27;;;6.30;98.20;;;;;;5069037;28;20472;-76
2020/12/04 07:15:26;;;;;;;1.60;1.30;;;6.30;98.20;;;;;;5072912;28;21260;-77
2020/12/04 07:17:53;;;;;;;1.60;1.30;;;6.40;98.20;;;;;;5061805;28;20490;-76
2020/12/04 07:20:19;;;;;;;1.57;1.30;;;6.40;98.20;;;;;;5070143;28;20484;-76
2020/12/04 07:22:47;;;;;;;1.60;1.33;;;6.40;98.20;;;;;;5065627;28;20520;-76
2020/12/04 07:25:14;;;;;;;1.60;1.23;;;6.40;98.20;;;;;;5065529;28;20531;-76
2020/12/04 07:27:40;;;;;;;1.60;1.30;;;6.50;98.20;;;;;;5064038;28;20560;-76
2020/12/04 07:30:14;;;;;;;1.60;1.43;;;6.50;98.20;;;;;;5064217;28;20454;-76
2020/12/04 07:32:49;;;;;;;1.60;1.30;;;6.50;98.20;;;;;;5072634;28;20494;-76
2020/12/04 07:35:15;;;;;;;1.60;1.30;;;6.60;98.20;;;;;;5072275;28;20489;-78
2020/12/04 07:37:42;;;;;;;1.60;1.40;;;6.60;98.20;;;;;;5068831;28;20570;-75
2020/12/04 07:40:09;;;;;;;1.60;1.30;;;6.70;98.20;;;;;;5074905;28;20462;-75
2020/12/04 07:42:36;;;;;;;1.60;1.40;;;6.70;98.20;;;;;;5068910;28;21054;-75
2020/12/04 07:45:04;;;;;;;1.53;1.20;;;6.80;98.20;;;;;;5074614;28;20790;-76
2020/12/04 07:47:30;;;;;;;1.60;1.20;;;6.80;98.20;;;;;;5072661;28;20472;-76
2020/12/04 07:50:00;;;;;;;1.60;1.23;;;6.80;98.20;;;;;;5066490;28;20872;-77
2020/12/04 07:52:29;;;;;;;1.60;1.30;;;6.90;98.20;;;;;;5068328;28;20545;-75
2020/12/04 07:54:58;;;;;;;1.60;1.40;;;6.90;98.20;;;;;;5070292;28;20477;-76
2020/12/04 07:57:31;;;;;;;1.60;1.23;;;6.90;98.20;;;;;;5066239;28;20838;-76
2020/12/04 07:59:59;;;;;;;1.60;1.30;;;6.90;98.20;;;;;;5072462;28;21062;-76
2020/12/04 08:02:27;;;;;;;1.60;1.33;;;7.00;98.20;;;;;;5069932;28;20484;-75
2020/12/04 08:04:55;;;;;;;1.60;1.27;;;7.00;98.20;;;;;;5063619;28;20486;-75
2020/12/04 08:07:21;;;;;;;1.60;1.20;;;7.00;98.20;;;;;;5070521;28;20485;-75
2020/12/04 08:09:48;;;;;;;1.60;1.30;;;7.10;98.20;;;;;;5072052;28;20469;-75
2020/12/04 08:12:17;;;;;;;1.60;1.40;;;7.10;98.20;;;;;;5072239;28;20466;-76
2020/12/04 08:14:53;;;;;;;1.60;1.20;;;7.10;98.20;;;;;;5072519;28;20764;-76
2020/12/04 08:17:24;;;;;;;1.60;1.30;;;7.10;98.20;;;;;;5071871;28;20573;-75
2020/12/04 08:19:51;;;;;;;1.60;1.20;;;7.20;98.20;;;;;;5067744;28;20469;-76
2020/12/04 08:22:26;;;;;;;1.60;1.27;;;7.20;98.20;;;;;;5068964;28;20466;-76
2020/12/04 08:25:03;;;;;;;2.87;2.67;;;7.20;98.20;;;;;;5066162;28;20488;-77
2020/12/04 08:27:31;;;;;;;1.60;1.30;;;7.20;98.20;;;;;;5066525;28;20462;-76
2020/12/04 08:30:15;;;;;;;1.60;1.30;;;7.20;98.20;;;;;;5070943;28;20465;-76
2020/12/04 08:32:43;;;;;;;1.60;1.30;;;7.30;98.20;;;;;;5073480;28;20454;-75
2020/12/04 08:35:13;;;;;;;1.60;1.20;;;7.30;98.20;;;;;;5066386;28;20485;-76
2020/12/04 08:37:40;;;;;;;1.60;1.30;;;7.30;98.20;;;;;;5069805;28;20512;-76
2020/12/04 08:40:20;;;;;;;1.60;1.20;;;7.30;98.20;;;;;;5071044;28;20497;-76
2020/12/04 08:42:50;;;;;;;1.60;1.20;;;7.30;98.20;;;;;;5075468;28;20469;-75
2020/12/04 08:45:25;;;;;;;1.60;1.20;;;7.30;98.20;;;;;;5071170;28;20485;-76
2020/12/04 08:47:51;;;;;;;1.60;1.20;;;7.30;98.20;;;;;;5071087;28;20453;-76
2020/12/04 08:50:21;;;;;;;1.60;1.30;;;7.30;98.20;;;;;;5076050;28;20545;-76
2020/12/04 08:52:50;;;;;;;1.60;1.30;;;7.30;98.20;;;;;;5074709;28;20565;-76
2020/12/04 08:55:19;;;;;;;1.60;1.37;;;7.40;98.20;;;;;;5066842;28;20989;-76
2020/12/04 08:57:47;;;;;;;2.27;2.07;;;7.40;98.20;;;;;;5071127;28;20495;-75
2020/12/04 09:00:16;;;;;;;1.60;1.20;;;7.40;98.20;;;;;;5073093;28;20472;-76
2020/12/04 09:02:45;;;;;;;1.60;1.30;;;7.40;98.20;;;;;;5075781;28;20482;-74
2020/12/04 09:05:14;;;;;;;1.60;1.30;;;7.40;98.20;;;;;;5073599;28;20481;-76
2020/12/04 09:07:44;;;;;;;1.60;1.30;;;7.30;98.20;;;;;;5070494;28;20465;-75
2020/12/04 09:10:13;;;;;;;1.70;1.60;;;7.30;98.20;;;;;;5071964;28;20446;-75
2020/12/04 09:12:41;;;;;;;1.60;1.20;;;7.30;98.20;;;;;;5070827;28;21117;-76
2020/12/04 09:15:10;;;;;;;1.60;1.20;;;7.40;98.20;;;;;;5074206;28;21066;-75
2020/12/04 09:17:37;;;;;;;1.60;1.50;;;7.40;98.20;;;;;;5075759;28;20486;-75
2020/12/04 09:20:07;;;;;;;1.60;1.20;;;7.40;98.20;;;;;;5074865;28;20474;-75
2020/12/04 09:22:34;;;;;;;1.60;1.30;;;7.50;98.20;;;;;;5080151;28;20983;-76
2020/12/04 09:25:01;;;;;;;1.60;1.30;;;7.50;98.20;;;;;;5073849;28;20488;-77
2020/12/04 09:27:28;;;;;;;1.60;1.30;;;7.50;98.20;;;;;;5073944;28;20678;-76
2020/12/04 09:29:55;;;;;;;1.60;1.40;;;7.60;98.20;;;;;;5075976;28;21016;-76
2020/12/04 09:32:22;;;;;;;1.60;1.20;;;7.60;98.20;;;;;;5071448;28;20473;-76
2020/12/04 09:34:50;;;;;;;1.60;1.20;;;7.60;98.20;;;;;;5076264;28;20915;-76
2020/12/04 09:37:20;;;;;;;1.70;1.60;;;7.70;98.20;;;;;;5075266;28;20474;-77
2020/12/04 09:39:48;;;;;;;1.60;1.20;;;7.70;98.20;;;;;;5070000;28;20539;-76
2020/12/04 09:42:16;;;;;;;1.60;1.30;;;7.80;98.20;;;;;;5071465;28;20771;-76
2020/12/04 09:44:44;;;;;;;1.60;1.30;;;7.80;98.20;;;;;;5076365;28;20474;-76
2020/12/04 09:47:11;;;;;;;1.60;1.20;;;7.90;98.20;;;;;;5070441;28;20524;-76
2020/12/04 09:49:38;;;;;;;1.60;1.17;;;7.90;98.20;;;;;;5071865;28;20479;-77
2020/12/04 09:52:05;;;;;;;9.37;3.10;;;8.00;98.20;;;;;;5073636;28;20462;-76
2020/12/04 09:54:37;;;;;;;1.60;1.20;;;8.10;98.20;;;;;;5070409;28;20510;-76
2020/12/04 09:57:05;;;;;;;1.60;1.40;;;8.10;98.20;;;;;;5069470;28;20513;-76
2020/12/04 09:59:32;;;;;;;1.60;1.20;;;8.20;98.20;;;;;;5073998;28;20489;-75
2020/12/04 10:02:03;;;;;;;1.60;1.20;;;8.20;98.20;;;;;;5074009;28;20462;-75
2020/12/04 10:04:30;;;;;;;1.60;1.20;;;8.10;98.20;;;;;;5073637;28;20494;-75
2020/12/04 10:06:58;;;;;;;1.60;1.20;;;8.10;98.20;;;;;;5076653;28;20523;-76
2020/12/04 10:09:26;;;;;;;1.60;1.30;;;8.10;98.20;;;;;;5076404;28;20470;-75
2020/12/04 10:11:53;;;;;;;1.60;1.20;;;8.20;98.20;;;;;;5077177;28;20614;-76
2020/12/04 10:14:20;;;;;;;1.60;1.20;;;8.20;98.20;;;;;;5069612;28;20509;-76
2020/12/04 10:16:48;;;;;;;1.60;1.20;;;8.20;98.20;;;;;;5071037;28;21463;-75
2020/12/04 10:19:16;;;;;;;1.60;1.30;;;8.30;98.20;;;;;;5072957;28;20610;-76
2020/12/04 10:21:43;;;;;;;1.60;1.17;;;8.20;98.20;;;;;;5072469;28;20851;-76
2020/12/04 10:24:11;;;;;;;1.60;1.20;;;8.30;98.20;;;;;;5075005;28;20489;-76
2020/12/04 10:26:38;;;;;;;1.60;1.20;;;8.30;98.20;;;;;;5070614;28;20560;-76
2020/12/04 10:29:06;;;;;;;1.57;1.20;;;8.30;98.20;;;;;;5075757;28;20481;-77
2020/12/04 10:31:32;;;;;;;1.60;1.20;;;8.40;98.20;;;;;;5072545;28;20462;-75
2020/12/04 10:33:59;;;;;;;1.60;1.20;;;8.50;98.20;;;;;;5074311;28;20481;-76
2020/12/04 10:36:26;;;;;;;1.60;1.30;;;8.50;98.20;;;;;;5075218;28;20509;-77
2020/12/04 10:38:53;;;;;;;1.60;1.30;;;8.60;98.20;;;;;;5072442;28;20482;-75
2020/12/04 10:41:20;;;;;;;1.60;1.20;;;8.60;98.20;;;;;;5066309;28;20549;-76
2020/12/04 10:43:47;;;;;;;2.10;1.67;;;8.60;98.20;;;;;;5072666;28;20610;-76
2020/12/04 10:46:15;;;;;;;1.60;1.20;;;8.60;98.20;;;;;;5077201;28;20458;-77
2020/12/04 10:48:41;;;;;;;1.60;1.40;;;8.60;98.20;;;;;;5073555;28;20944;-75
2020/12/04 10:51:09;;;;;;;1.60;1.20;;;8.60;98.20;;;;;;5071540;28;20483;-76
2020/12/04 10:53:36;;;;;;;1.60;1.20;;;8.70;98.20;;;;;;5071725;28;20473;-76
2020/12/04 10:56:02;;;;;;;1.60;1.10;;;8.70;98.20;;;;;;5069696;28;20466;-76
2020/12/04 10:58:29;;;;;;;1.60;1.20;;;8.70;98.20;;;;;;5072477;28;20474;-76
2020/12/04 11:00:55;;;;;;;1.60;1.20;;;8.80;98.20;;;;;;5067968;28;20477;-77
2020/12/04 11:03:31;;;;;;;1.60;1.20;;;8.80;98.20;;;;;;5074159;28;20473;-76
2020/12/04 11:05:57;;;;;;;1.60;1.20;;;8.80;98.20;;;;;;5069790;28;20455;-76
2020/12/04 11:08:24;;;;;;;1.60;1.30;;;8.80;98.20;;;;;;5075383;28;20660;-76
2020/12/04 11:10:51;;;;;;;1.60;1.30;;;8.90;98.20;;;;;;5073120;28;20538;-76
2020/12/04 11:13:18;;;;;;;1.60;1.20;;;8.90;98.20;;;;;;5079195;28;20457;-77
2020/12/04 11:15:44;;;;;;;1.60;1.30;;;8.90;98.20;;;;;;5076378;28;20522;-76
2020/12/04 11:18:11;;;;;;;1.60;1.20;;;9.00;98.20;;;;;;5073167;28;20481;-77
2020/12/04 11:20:38;;;;;;;1.60;1.30;;;9.00;98.20;;;;;;5072366;28;20594;-76
2020/12/04 11:23:05;;;;;;;1.70;1.47;;;9.00;98.20;;;;;;5076122;28;20633;-76
2020/12/04 11:25:33;;;;;;;1.93;1.67;;;9.00;98.20;;;;;;5077517;28;20486;-76
2020/12/04 11:28:00;;;;;;;1.60;1.20;;;9.00;98.20;;;;;;5074845;28;20526;-75
2020/12/04 11:30:26;;;;;;;1.60;1.30;;;9.00;98.20;;;;;;5079326;28;20512;-75
2020/12/04 11:32:57;;;;;;;1.60;1.20;;;8.90;98.20;;;;;;5079007;28;20528;-75
2020/12/04 11:35:23;;;;;;;1.60;1.20;;;8.90;98.20;;;;;;5066582;28;20544;-75
2020/12/04 11:37:51;;;;;;;1.60;1.30;;;8.90;98.20;;;;;;5080751;28;20504;-76
2020/12/04 11:40:18;;;;;;;1.60;1.13;;;8.90;98.20;;;;;;5079787;28;20469;-75
2020/12/04 11:42:46;;;;;;;1.57;1.20;;;8.90;98.20;;;;;;5081598;28;20453;-75
2020/12/04 11:45:15;;;;;;;1.60;1.20;;;8.90;98.20;;;;;;5076077;28;20508;-75
2020/12/04 11:47:42;;;;;;;1.60;1.10;;;8.90;98.20;;;;;;5075288;28;20477;-75
2020/12/04 11:50:12;;;;;;;1.60;1.10;;;8.90;98.20;;;;;;5078380;28;20937;-75
2020/12/04 11:52:39;;;;;;;1.60;1.10;;;8.90;97.80;;;;;;5076537;28;20476;-76
2020/12/04 11:55:07;;;;;;;1.57;1.10;;;8.90;97.50;;;;;;5071607;28;20474;-75
2020/12/04 11:57:34;;;;;;;1.60;1.20;;;8.90;96.80;;;;;;5079526;28;20482;-75
2020/12/04 12:00:00;;;;;;;1.60;1.10;;;8.90;96.40;;;;;;5082114;28;20458;-76
2020/12/04 12:02:27;;;;;;;1.60;1.10;;;8.90;96.00;;;;;;5077767;28;20473;-75
2020/12/04 12:04:54;;;;;;;1.60;1.20;;;8.90;96.00;;;;;;5069113;28;20497;-75
2020/12/04 12:07:20;;;;;;;1.60;1.30;;;8.90;96.00;;;;;;5075421;28;20520;-75
2020/12/04 12:09:48;;;;;;;1.60;1.20;;;8.90;96.30;;;;;;5080700;28;20466;-76
2020/12/04 12:12:16;;;;;;;1.60;1.10;;;8.90;96.20;;;;;;5075924;28;20988;-76
2020/12/04 12:14:44;;;;;;;1.60;1.30;;;8.90;96.30;;;;;;5077238;28;20470;-76
2020/12/04 12:17:11;;;;;;;1.60;1.20;;;8.90;96.50;;;;;;5078350;28;20521;-75
2020/12/04 12:19:39;;;;;;;1.60;1.10;;;9.00;96.50;;;;;;5078418;28;20499;-75
2020/12/04 12:22:07;;;;;;;1.57;1.20;;;9.00;96.20;;;;;;5074375;28;20455;-75
2020/12/04 12:24:33;;;;;;;1.60;1.20;;;9.00;95.80;;;;;;5077233;28;21008;-77
2020/12/04 12:27:00;;;;;;;1.60;1.20;;;9.10;96.40;;;;;;5077748;28;20495;-75
2020/12/04 12:29:28;;;;;;;1.60;1.10;;;9.10;95.80;;;;;;5069475;28;20491;-76
2020/12/04 12:31:54;;;;;;;1.60;1.20;;;9.10;96.10;;;;;;5079295;28;20454;-75
2020/12/04 12:34:20;;;;;;;1.60;1.20;;;9.10;96.00;;;;;;5081314;28;20477;-75
2020/12/04 12:36:47;;;;;;;1.60;1.10;;;9.10;95.90;;;;;;5075381;28;20506;-76
2020/12/04 12:39:13;;;;;;;1.60;1.20;;;9.10;95.40;;;;;;5081296;28;20888;-77
2020/12/04 12:41:40;;;;;;;1.60;1.30;;;9.00;95.70;;;;;;5079051;28;20454;-75
2020/12/04 12:44:07;;;;;;;1.60;1.17;;;9.00;95.70;;;;;;5082271;28;20531;-76
2020/12/04 12:46:37;;;;;;;1.60;1.20;;;9.00;96.00;;;;;;5078560;28;20458;-76
2020/12/04 12:49:04;;;;;;;1.60;1.20;;;9.00;95.50;;;;;;5074028;28;20512;-75
2020/12/04 12:51:30;;;;;;;1.53;1.10;;;9.00;95.70;;;;;;5077417;28;20483;-76
2020/12/04 12:53:57;;;;;;;1.60;1.23;;;8.90;95.50;;;;;;5079971;28;20984;-75
2020/12/04 12:56:23;;;;;;;1.60;1.20;;;8.90;95.40;;;;;;5067643;28;20471;-76
2020/12/04 12:58:49;;;;;;;1.60;1.20;;;8.90;95.80;;;;;;5070912;28;20463;-76
2020/12/04 13:01:17;;;;;;;1.57;1.10;;;8.90;95.60;;;;;;5080147;28;20978;-76